Time;durP1;ratioP1;P1;durP2;ratioP2;P2;SDS_P1;SDS_P2;PMS_P1;PMS_P2;Temp;Humidity;BMP_temperature;BMP_pressure;BME280_temperature;BME280_humidity;BME280_pressure;Samples;Min_cycle;Max_cycle;Signal;HPM_P1;HPM_P2
2022/01/03 00:01:45;;;;;;;4.13;1.52;;;10.40;99.90;;;;;;5030593;28;20040;-68
2022/01/03 00:04:12;;;;;;;20.67;2.38;;;10.40;99.90;;;;;;5034553;28;20057;-68
2022/01/03 00:06:38;;;;;;;6.30;1.25;;;10.30;99.90;;;;;;5035004;28;20029;-68
2022/01/03 00:09:05;;;;;;;7.63;1.60;;;10.40;99.90;;;;;;5033831;28;20532;-68
2022/01/03 00:11:31;;;;;;;4.05;1.70;;;10.40;99.90;;;;;;5035335;28;20033;-68
2022/01/03 00:13:57;;;;;;;3.15;1.52;;;10.30;99.90;;;;;;5035461;28;20022;-68
2022/01/03 00:16:24;;;;;;;8.10;1.60;;;10.30;99.90;;;;;;5039495;28;20029;-68
2022/01/03 00:18:51;;;;;;;5.88;1.60;;;10.30;99.90;;;;;;5038968;28;20029;-68
2022/01/03 00:21:18;;;;;;;8.20;1.48;;;10.40;99.90;;;;;;5035276;28;20018;-68
2022/01/03 00:23:56;;;;;;;6.05;1.70;;;10.40;99.90;;;;;;5038905;28;20025;-68
2022/01/03 00:26:26;;;;;;;9.32;2.40;;;10.30;99.90;;;;;;5038781;28;20492;-68
2022/01/03 00:28:58;;;;;;;10.93;2.08;;;10.40;99.90;;;;;;5041405;28;20627;-68
2022/01/03 00:31:34;;;;;;;9.30;1.92;;;10.20;99.90;;;;;;5043065;28;20125;-68
2022/01/03 00:34:04;;;;;;;2.33;1.10;;;10.30;99.90;;;;;;5041602;28;20033;-69
2022/01/03 00:36:31;;;;;;;9.35;1.65;;;10.20;99.90;;;;;;5033735;28;20052;-68
2022/01/03 00:38:57;;;;;;;4.55;1.50;;;10.20;99.90;;;;;;5039430;28;20021;-68
2022/01/03 00:41:23;;;;;;;1.50;0.98;;;10.20;99.90;;;;;;5037816;28;20044;-68
2022/01/03 00:43:54;;;;;;;11.70;1.50;;;10.20;99.90;;;;;;5034943;28;20038;-68
2022/01/03 00:46:20;;;;;;;10.18;1.35;;;10.20;99.90;;;;;;5038973;28;20025;-68
2022/01/03 00:48:45;;;;;;;20.02;1.63;;;10.20;99.90;;;;;;5034818;28;20040;-68
2022/01/03 00:51:14;;;;;;;6.05;1.73;;;10.20;99.90;;;;;;5041110;28;20026;-68
2022/01/03 00:53:40;;;;;;;2.53;0.95;;;10.00;99.90;;;;;;5039087;28;20108;-67
2022/01/03 00:56:14;;;;;;;6.35;2.08;;;9.80;99.90;;;;;;5039593;28;20025;-67
2022/01/03 00:59:04;;;;;;;3.67;1.98;;;9.70;99.90;;;;;;5037663;28;20491;-67
2022/01/03 01:01:31;;;;;;;1.63;1.20;;;9.60;99.90;;;;;;5040437;28;20544;-67
2022/01/03 01:03:57;;;;;;;1.38;1.00;;;9.60;99.90;;;;;;5036502;28;20025;-67
2022/01/03 01:06:24;;;;;;;4.40;1.25;;;9.60;99.90;;;;;;5040374;28;20040;-67
2022/01/03 01:08:55;;;;;;;5.95;1.50;;;9.60;99.90;;;;;;5036514;28;20028;-67
2022/01/03 01:11:25;;;;;;;2.53;0.93;;;9.50;99.90;;;;;;5035097;28;20029;-67
2022/01/03 01:13:51;;;;;;;2.35;1.00;;;9.50;99.90;;;;;;5039460;28;20034;-67
2022/01/03 01:16:18;;;;;;;2.72;1.08;;;9.50;99.90;;;;;;5040640;28;20033;-67
2022/01/03 01:18:46;;;;;;;4.07;1.45;;;9.50;99.90;;;;;;5041852;28;20102;-67
2022/01/03 01:21:13;;;;;;;7.63;1.73;;;9.60;99.90;;;;;;5039765;28;20101;-67
2022/01/03 01:23:41;;;;;;;7.03;2.15;;;9.50;99.90;;;;;;5038177;28;20095;-67
2022/01/03 01:28:52;;;;;;;7.82;1.65;;;9.50;99.90;;;;;;5035136;28;20040;-67
2022/01/03 01:31:21;;;;;;;1.77;1.17;;;9.50;99.90;;;;;;5041827;28;20041;-67
2022/01/03 01:33:52;;;;;;;8.38;1.85;;;9.40;99.90;;;;;;5037215;28;20032;-67
2022/01/03 01:36:20;;;;;;;7.63;0.98;;;9.50;99.90;;;;;;5033137;28;20013;-68
2022/01/03 01:38:50;;;;;;;1.88;1.45;;;9.50;99.90;;;;;;5037658;28;20681;-68
2022/01/03 01:41:18;;;;;;;3.37;0.97;;;9.50;99.90;;;;;;5038367;28;20021;-68
2022/01/03 01:43:47;;;;;;;2.50;1.23;;;9.40;99.90;;;;;;5038753;28;20135;-68
2022/01/03 01:46:18;;;;;;;11.43;1.83;;;9.40;99.90;;;;;;5039358;28;20048;-68
2022/01/03 01:48:49;;;;;;;2.58;1.27;;;9.40;99.90;;;;;;5033932;28;20029;-68
2022/01/03 01:51:19;;;;;;;1.60;0.93;;;9.50;99.90;;;;;;5035765;28;20025;-68
2022/01/03 01:53:50;;;;;;;1.83;1.17;;;9.50;99.90;;;;;;5038413;28;20025;-68
2022/01/03 01:56:19;;;;;;;3.50;1.00;;;9.50;99.90;;;;;;5032243;28;20026;-68
2022/01/03 01:59:10;;;;;;;1.75;0.80;;;9.60;99.90;;;;;;5039592;28;20018;-68
2022/01/03 02:01:46;;;;;;;4.97;1.50;;;9.60;99.90;;;;;;5040084;28;20421;-68
2022/01/03 02:04:41;;;;;;;4.18;1.20;;;9.70;99.90;;;;;;5035946;28;20029;-68
2022/01/03 02:07:19;;;;;;;3.10;1.35;;;9.60;99.90;;;;;;5031715;28;20045;-68
2022/01/03 02:10:00;;;;;;;12.10;2.70;;;9.70;99.90;;;;;;5034145;28;20056;-68
2022/01/03 02:12:27;;;;;;;3.50;1.25;;;9.80;99.90;;;;;;5035111;28;20160;-68
2022/01/03 02:14:57;;;;;;;3.08;1.17;;;9.70;99.90;;;;;;5037338;28;20041;-68
2022/01/03 02:17:23;;;;;;;5.10;1.30;;;9.70;99.90;;;;;;5040233;28;20021;-68
2022/01/03 02:20:04;;;;;;;9.00;1.52;;;9.70;99.90;;;;;;5038510;28;20032;-68
2022/01/03 02:22:30;;;;;;;18.13;1.67;;;9.80;99.90;;;;;;5028240;28;20492;-68
2022/01/03 02:24:56;;;;;;;4.13;1.73;;;9.80;99.90;;;;;;5035345;28;20013;-68
2022/01/03 02:27:21;;;;;;;4.88;1.02;;;9.90;99.90;;;;;;5037662;28;20028;-68
2022/01/03 02:29:47;;;;;;;4.05;1.50;;;9.90;99.90;;;;;;5030575;28;20089;-68
2022/01/03 02:32:12;;;;;;;9.48;1.95;;;9.80;99.90;;;;;;5035296;28;20525;-68
2022/01/03 02:34:38;;;;;;;6.63;1.25;;;9.90;99.90;;;;;;5034867;28;20021;-68
2022/01/03 02:37:04;;;;;;;8.43;1.33;;;9.80;99.90;;;;;;5034532;28;20478;-68
2022/01/03 02:39:30;;;;;;;7.97;2.58;;;9.80;99.90;;;;;;5037479;28;20018;-68
2022/01/03 02:41:56;;;;;;;12.73;1.98;;;9.90;99.90;;;;;;5032094;28;20366;-68
2022/01/03 02:44:21;;;;;;;5.70;2.03;;;9.80;99.90;;;;;;5035927;28;20033;-68
2022/01/03 02:46:47;;;;;;;10.05;1.42;;;9.80;99.90;;;;;;5037136;28;20033;-68
2022/01/03 02:49:12;;;;;;;4.28;1.00;;;9.90;99.90;;;;;;5035374;28;20638;-68
2022/01/03 02:51:38;;;;;;;7.63;1.25;;;9.90;99.90;;;;;;5035477;28;20417;-68
2022/01/03 02:54:03;;;;;;;1.20;1.02;;;9.80;99.90;;;;;;5034277;28;20033;-68
2022/01/03 02:56:33;;;;;;;6.97;1.88;;;9.80;99.90;;;;;;5034847;28;20185;-68
2022/01/03 02:58:59;;;;;;;7.15;1.70;;;9.80;99.90;;;;;;5033778;28;20071;-68
2022/01/03 03:01:25;;;;;;;2.72;1.10;;;9.80;99.90;;;;;;5035320;28;20017;-68
2022/01/03 03:03:50;;;;;;;7.28;1.23;;;9.70;99.90;;;;;;5034028;28;20021;-68
2022/01/03 03:06:16;;;;;;;2.88;1.05;;;9.60;99.90;;;;;;5034227;28;20025;-68
2022/01/03 03:08:42;;;;;;;6.60;1.15;;;9.60;99.90;;;;;;5032425;28;20092;-68
2022/01/03 03:11:08;;;;;;;9.65;1.20;;;9.70;99.90;;;;;;5033288;28;20026;-68
2022/01/03 03:13:34;;;;;;;3.83;1.30;;;9.60;99.90;;;;;;5036557;28;20021;-68
2022/01/03 03:16:00;;;;;;;2.45;0.77;;;9.50;99.90;;;;;;5039289;28;20075;-68
2022/01/03 03:18:25;;;;;;;2.38;1.10;;;9.70;99.90;;;;;;5039155;28;20010;-68
2022/01/03 03:20:54;;;;;;;1.58;0.85;;;9.70;99.90;;;;;;5036919;28;20430;-68
2022/01/03 03:23:23;;;;;;;7.22;1.60;;;9.80;99.90;;;;;;5035445;28;20028;-68
2022/01/03 03:25:49;;;;;;;2.42;1.08;;;9.80;99.90;;;;;;5036759;28;20316;-68
2022/01/03 03:28:15;;;;;;;5.20;1.60;;;9.90;99.90;;;;;;5029842;28;20112;-68
2022/01/03 03:30:47;;;;;;;7.13;1.52;;;9.80;99.90;;;;;;5035505;28;20055;-68
2022/01/03 03:33:15;;;;;;;6.00;1.75;;;9.90;99.90;;;;;;5038175;28;20029;-68
2022/01/03 03:35:42;;;;;;;9.30;1.65;;;9.90;99.90;;;;;;5034029;28;20081;-68
2022/01/03 03:38:08;;;;;;;10.90;1.60;;;9.80;99.90;;;;;;5036367;28;20040;-68
2022/01/03 03:40:34;;;;;;;5.82;1.13;;;9.90;99.90;;;;;;5035013;28;20017;-68
2022/01/03 03:43:00;;;;;;;6.93;1.08;;;9.80;99.90;;;;;;5036951;28;20021;-68
2022/01/03 03:45:26;;;;;;;1.55;0.93;;;9.70;99.90;;;;;;5037469;28;20028;-68
2022/01/03 03:47:52;;;;;;;1.67;0.95;;;9.70;99.90;;;;;;5036825;28;20083;-68
2022/01/03 03:50:19;;;;;;;4.55;0.98;;;9.70;99.90;;;;;;5037669;28;20516;-68
2022/01/03 03:52:45;;;;;;;2.28;1.05;;;9.70;99.90;;;;;;5033035;28;20481;-68
2022/01/03 03:55:11;;;;;;;0.73;0.70;;;9.70;99.90;;;;;;5027747;28;20021;-68
2022/01/03 03:57:37;;;;;;;2.53;1.17;;;9.60;99.90;;;;;;5038158;28;20116;-68
2022/01/03 04:00:08;;;;;;;3.72;0.68;;;9.60;99.90;;;;;;5036656;28;20083;-68
2022/01/03 04:02:34;;;;;;;3.28;0.98;;;9.70;99.90;;;;;;5037486;28;20092;-68
2022/01/03 04:05:01;;;;;;;8.43;1.25;;;9.80;99.90;;;;;;5031984;28;20092;-68
2022/01/03 04:07:27;;;;;;;6.50;1.00;;;9.80;99.90;;;;;;5039573;28;20529;-68
2022/01/03 04:09:53;;;;;;;5.38;1.30;;;9.80;99.90;;;;;;5039225;28;20099;-68
2022/01/03 04:12:18;;;;;;;2.15;1.02;;;9.80;99.90;;;;;;5039480;28;20138;-68
2022/01/03 04:14:44;;;;;;;6.72;1.25;;;9.80;99.90;;;;;;5033983;28;20366;-68
2022/01/03 04:17:10;;;;;;;6.50;1.15;;;9.80;99.90;;;;;;5037045;28;20022;-68
2022/01/03 04:19:36;;;;;;;4.38;1.35;;;9.80;99.90;;;;;;5035339;28;20515;-68
2022/01/03 04:22:02;;;;;;;3.78;1.50;;;9.80;99.90;;;;;;5036811;28;20029;-68
2022/01/03 04:24:27;;;;;;;3.53;0.63;;;9.80;99.90;;;;;;5039757;28;20487;-68
2022/01/03 04:26:53;;;;;;;5.10;1.27;;;9.80;99.90;;;;;;5041930;28;20060;-68
2022/01/03 04:29:19;;;;;;;4.78;1.05;;;9.80;99.90;;;;;;5030947;28;20393;-68
2022/01/03 04:31:44;;;;;;;8.13;1.00;;;9.80;99.90;;;;;;5037672;28;20080;-69
2022/01/03 04:34:10;;;;;;;5.78;1.15;;;9.80;99.90;;;;;;5036888;28;20474;-68
2022/01/03 04:36:36;;;;;;;1.80;0.90;;;9.80;99.90;;;;;;5035053;28;20747;-68
2022/01/03 04:39:03;;;;;;;2.30;1.15;;;9.80;99.90;;;;;;5030759;28;20030;-68
2022/01/03 04:41:29;;;;;;;5.07;1.10;;;9.80;99.90;;;;;;5035409;28;20107;-68
2022/01/03 04:43:54;;;;;;;6.40;1.42;;;9.80;99.90;;;;;;5033113;28;20058;-68
2022/01/03 04:46:20;;;;;;;4.97;1.00;;;9.80;99.90;;;;;;5033349;28;20040;-68
2022/01/03 04:48:46;;;;;;;6.22;1.02;;;9.70;99.90;;;;;;5032247;28;20106;-68
2022/01/03 04:51:12;;;;;;;4.85;2.65;;;9.70;99.90;;;;;;5035794;28;20092;-68
2022/01/03 04:53:40;;;;;;;2.13;0.95;;;9.80;99.90;;;;;;5035781;28;20033;-68
2022/01/03 04:56:10;;;;;;;2.97;1.50;;;9.70;99.90;;;;;;5032001;28;20018;-68
2022/01/03 04:58:37;;;;;;;3.65;1.50;;;9.60;99.90;;;;;;5037068;28;20104;-68
2022/01/03 05:01:03;;;;;;;9.82;2.17;;;9.60;99.90;;;;;;5036899;28;20108;-68
2022/01/03 05:03:29;;;;;;;3.60;1.63;;;9.40;99.90;;;;;;5040331;28;20025;-68
2022/01/03 05:05:54;;;;;;;3.00;1.42;;;9.40;99.90;;;;;;5036875;28;20040;-68
2022/01/03 05:08:20;;;;;;;2.00;1.00;;;9.50;99.90;;;;;;5041982;28;20017;-68
2022/01/03 05:10:46;;;;;;;4.57;1.00;;;9.60;99.90;;;;;;5034228;28;20060;-68
2022/01/03 05:13:11;;;;;;;1.02;0.75;;;9.60;99.90;;;;;;5044675;28;20029;-68
2022/01/03 05:15:37;;;;;;;2.38;0.95;;;9.50;99.90;;;;;;5039583;28;20030;-68
2022/01/03 05:18:03;;;;;;;9.82;1.92;;;9.50;99.90;;;;;;5034856;28;20393;-68
2022/01/03 05:20:28;;;;;;;12.90;1.90;;;9.60;99.90;;;;;;5036311;28;20614;-68
2022/01/03 05:22:54;;;;;;;3.65;1.70;;;9.60;99.90;;;;;;5030126;28;20029;-68
2022/01/03 05:25:20;;;;;;;3.25;1.50;;;9.50;99.90;;;;;;5033363;28;20431;-68
2022/01/03 05:27:45;;;;;;;5.28;1.40;;;9.50;99.90;;;;;;5031349;28;20053;-69
2022/01/03 05:30:11;;;;;;;2.38;1.00;;;9.50;99.90;;;;;;5035795;28;20049;-69
2022/01/03 05:32:37;;;;;;;2.25;0.93;;;9.50;99.90;;;;;;5026027;28;20080;-66
2022/01/03 05:35:04;;;;;;;8.07;1.48;;;9.50;99.90;;;;;;5026968;28;20021;-67
2022/01/03 05:37:29;;;;;;;3.17;1.48;;;9.40;99.90;;;;;;5033104;28;20021;-67
2022/01/03 05:39:55;;;;;;;7.75;1.20;;;9.40;99.90;;;;;;5028371;28;20021;-67
2022/01/03 05:42:21;;;;;;;1.98;0.88;;;9.50;99.90;;;;;;5030481;28;20060;-67
2022/01/03 05:44:46;;;;;;;3.17;1.00;;;9.50;99.90;;;;;;5029711;28;20120;-67
2022/01/03 05:47:12;;;;;;;3.85;0.98;;;9.60;99.90;;;;;;5033454;28;20068;-67
2022/01/03 05:49:38;;;;;;;3.53;1.38;;;9.70;99.90;;;;;;5033332;28;20033;-67
2022/01/03 05:52:03;;;;;;;4.10;1.10;;;9.70;99.90;;;;;;5029511;28;20389;-67
2022/01/03 05:54:29;;;;;;;9.18;1.35;;;9.70;99.90;;;;;;5032286;28;20056;-68
2022/01/03 05:56:55;;;;;;;4.57;1.52;;;9.60;99.90;;;;;;5034612;28;20450;-67
2022/01/03 05:59:20;;;;;;;4.25;0.90;;;9.60;99.90;;;;;;5037073;28;20021;-68
2022/01/03 06:01:47;;;;;;;1.75;1.17;;;9.70;99.90;;;;;;5037541;28;20052;-67
2022/01/03 06:04:21;;;;;;;1.95;1.02;;;9.70;99.90;;;;;;5039533;28;20033;-67
2022/01/03 06:06:59;;;;;;;13.43;1.95;;;9.70;99.90;;;;;;5036246;28;20021;-67
2022/01/03 06:09:25;;;;;;;2.35;1.05;;;9.70;99.90;;;;;;5038164;28;20028;-68
2022/01/03 06:11:53;;;;;;;1.20;0.75;;;9.60;99.90;;;;;;5030869;28;20030;-68
2022/01/03 06:14:20;;;;;;;4.13;0.95;;;9.60;99.90;;;;;;5028396;28;20026;-68
2022/01/03 06:16:46;;;;;;;3.38;1.30;;;9.70;99.90;;;;;;5030210;28;20048;-68
2022/01/03 06:19:13;;;;;;;1.95;1.25;;;9.70;99.90;;;;;;5032721;28;20075;-68
2022/01/03 06:21:40;;;;;;;3.40;1.35;;;9.80;99.90;;;;;;5028742;28;20448;-68
2022/01/03 06:24:11;;;;;;;2.83;0.70;;;9.70;99.90;;;;;;5031033;28;20033;-68
2022/01/03 06:26:39;;;;;;;21.90;2.63;;;9.70;99.90;;;;;;5033744;28;20033;-68
2022/01/03 06:29:05;;;;;;;1.30;0.98;;;9.70;99.90;;;;;;5035369;28;20104;-68
2022/01/03 06:31:31;;;;;;;4.97;1.27;;;9.70;99.90;;;;;;5029429;28;20129;-68
2022/01/03 06:33:57;;;;;;;0.60;0.60;;;9.60;99.90;;;;;;5030674;28;20028;-68
2022/01/03 06:36:23;;;;;;;5.95;1.05;;;9.60;99.90;;;;;;5033867;28;20029;-68
2022/01/03 06:38:49;;;;;;;2.97;1.00;;;9.70;99.90;;;;;;5033125;28;20439;-68
2022/01/03 06:41:14;;;;;;;1.58;0.80;;;9.70;99.90;;;;;;5035848;28;20070;-69
2022/01/03 06:43:40;;;;;;;3.40;1.20;;;9.70;99.90;;;;;;5027311;28;20556;-69
2022/01/03 06:46:05;;;;;;;6.53;0.80;;;9.60;99.90;;;;;;5027499;28;20032;-68
2022/01/03 06:48:31;;;;;;;8.73;1.45;;;9.70;99.90;;;;;;5031711;28;20026;-68
2022/01/03 06:50:57;;;;;;;1.23;0.80;;;9.70;99.90;;;;;;5031096;28;20633;-68
2022/01/03 06:53:22;;;;;;;3.03;0.88;;;9.70;99.90;;;;;;5032078;28;20077;-68
2022/01/03 06:55:48;;;;;;;11.55;1.15;;;9.70;99.90;;;;;;5031115;28;20484;-69
2022/01/03 06:58:13;;;;;;;2.63;1.15;;;9.70;99.90;;;;;;5033682;28;20488;-68
2022/01/03 07:00:39;;;;;;;1.23;1.13;;;9.70;99.90;;;;;;5035374;28;20082;-68
2022/01/03 07:03:04;;;;;;;4.35;0.90;;;9.70;99.90;;;;;;5033100;28;20040;-69
2022/01/03 07:05:30;;;;;;;0.65;0.65;;;9.70;99.90;;;;;;5036085;28;20021;-69
2022/01/03 07:07:56;;;;;;;12.70;1.45;;;9.70;99.90;;;;;;5035554;28;20029;-68
2022/01/03 07:10:21;;;;;;;9.95;0.93;;;9.70;99.90;;;;;;5022471;28;20025;-68
2022/01/03 07:12:50;;;;;;;1.95;1.10;;;9.70;99.90;;;;;;5022148;28;20123;-68
2022/01/03 07:20:47;;;;;;;0.52;0.52;;;9.80;99.90;;;;;;5030494;28;20032;-68
2022/01/03 07:23:13;;;;;;;5.32;1.27;;;9.80;99.90;;;;;;5034920;28;20083;-69
2022/01/03 07:25:39;;;;;;;2.08;0.90;;;9.80;99.90;;;;;;5035436;28;20108;-69
2022/01/03 07:28:06;;;;;;;8.40;1.20;;;9.90;99.90;;;;;;5033663;28;20108;-68
2022/01/03 07:30:32;;;;;;;4.13;1.40;;;9.80;99.90;;;;;;5014411;28;20068;-69
2022/01/03 07:32:58;;;;;;;8.63;1.25;;;9.80;99.90;;;;;;5030357;28;20378;-68
2022/01/03 07:35:24;;;;;;;10.27;1.60;;;9.90;99.90;;;;;;5031533;28;20119;-68
2022/01/03 07:37:52;;;;;;;4.22;1.10;;;9.80;99.90;;;;;;5034764;28;20087;-68
2022/01/03 07:40:17;;;;;;;4.22;0.90;;;9.90;99.90;;;;;;5033575;28;20627;-68
2022/01/03 07:42:43;;;;;;;2.28;1.15;;;9.90;99.90;;;;;;5034259;28;20029;-68
2022/01/03 07:45:09;;;;;;;4.85;0.90;;;9.80;99.90;;;;;;5029620;28;20025;-68
2022/01/03 07:47:35;;;;;;;8.82;1.75;;;9.80;99.90;;;;;;5034759;28;20443;-68
2022/01/03 07:50:01;;;;;;;2.53;1.00;;;9.80;99.90;;;;;;5030691;28;20051;-68
2022/01/03 07:52:27;;;;;;;3.00;1.27;;;9.80;99.90;;;;;;5027328;28;20021;-68
2022/01/03 07:54:52;;;;;;;4.45;1.30;;;9.80;99.90;;;;;;5033565;28;20544;-68
2022/01/03 07:57:19;;;;;;;9.32;1.45;;;9.70;99.90;;;;;;5029364;28;20021;-68
2022/01/03 07:59:45;;;;;;;3.90;1.17;;;9.60;99.90;;;;;;5027302;28;20022;-69
2022/01/03 08:02:11;;;;;;;3.10;1.55;;;9.70;99.90;;;;;;5028147;28;20636;-69
2022/01/03 08:04:37;;;;;;;3.90;1.17;;;9.70;99.90;;;;;;5034578;28;20105;-69
2022/01/03 08:07:03;;;;;;;0.85;0.70;;;9.70;99.90;;;;;;5029181;28;20025;-68
2022/01/03 08:09:29;;;;;;;1.25;0.80;;;9.80;99.90;;;;;;5032719;28;20040;-68
2022/01/03 08:11:55;;;;;;;1.25;0.88;;;9.90;99.90;;;;;;5036459;28;21518;-69
2022/01/03 08:14:21;;;;;;;2.08;1.10;;;9.90;99.90;;;;;;5028789;28;20029;-69
2022/01/03 08:16:46;;;;;;;12.60;1.77;;;9.90;99.90;;;;;;5035196;28;20036;-69
2022/01/03 08:19:12;;;;;;;2.97;1.30;;;10.00;99.90;;;;;;5034365;28;20068;-69
2022/01/03 08:21:38;;;;;;;6.22;1.75;;;10.00;99.90;;;;;;5027164;28;20037;-69
2022/01/03 08:24:04;;;;;;;0.60;0.60;;;10.00;99.90;;;;;;5036318;28;20033;-69
2022/01/03 08:26:31;;;;;;;2.08;0.80;;;10.00;99.90;;;;;;5038135;28;20025;-69
2022/01/03 08:28:57;;;;;;;11.93;1.70;;;10.00;99.90;;;;;;5033500;28;20056;-69
2022/01/03 08:31:23;;;;;;;1.35;0.90;;;10.00;99.90;;;;;;5031180;28;20054;-69
2022/01/03 08:33:48;;;;;;;1.40;0.82;;;10.00;99.90;;;;;;5032883;28;20032;-69
2022/01/03 08:36:14;;;;;;;4.07;1.50;;;10.10;99.90;;;;;;5024050;28;20063;-69
2022/01/03 08:38:40;;;;;;;2.72;0.98;;;10.10;99.90;;;;;;5039980;28;20025;-68
2022/01/03 08:41:06;;;;;;;1.00;0.80;;;9.90;99.90;;;;;;5032283;28;20041;-68
2022/01/03 08:43:32;;;;;;;4.50;1.13;;;9.70;99.90;;;;;;5030719;28;20473;-68
2022/01/03 08:45:58;;;;;;;4.22;1.27;;;9.50;99.90;;;;;;5044196;28;20021;-68
2022/01/03 08:48:24;;;;;;;1.95;0.95;;;9.40;99.90;;;;;;5029140;28;20033;-68
2022/01/03 08:50:49;;;;;;;6.30;1.67;;;9.40;99.90;;;;;;5020854;28;20052;-68
2022/01/03 08:53:15;;;;;;;6.22;1.50;;;9.50;99.90;;;;;;5025086;28;20452;-68
2022/01/03 08:55:41;;;;;;;1.13;0.80;;;9.50;99.90;;;;;;5019116;28;20017;-68
2022/01/03 08:58:07;;;;;;;1.85;0.85;;;9.50;99.90;;;;;;5017245;28;20030;-68
2022/01/03 09:00:33;;;;;;;3.45;1.13;;;9.60;99.90;;;;;;5021336;28;20156;-68
2022/01/03 09:02:59;;;;;;;7.38;1.50;;;9.60;99.90;;;;;;5019310;28;20030;-68
2022/01/03 09:05:25;;;;;;;17.58;1.63;;;9.70;99.90;;;;;;5016735;28;20093;-69
2022/01/03 09:07:50;;;;;;;1.48;1.05;;;9.70;99.90;;;;;;5022950;28;20445;-68
2022/01/03 09:10:16;;;;;;;3.17;1.40;;;9.60;99.90;;;;;;5019354;28;20041;-68
2022/01/03 09:12:42;;;;;;;4.07;1.58;;;9.60;99.90;;;;;;5020019;28;20110;-68
2022/01/03 09:15:08;;;;;;;4.13;1.23;;;9.70;99.90;;;;;;5021105;28;20109;-68
2022/01/03 09:17:33;;;;;;;11.73;1.65;;;9.70;99.90;;;;;;5018700;28;20030;-68
2022/01/03 09:19:59;;;;;;;3.50;1.48;;;9.70;99.90;;;;;;5018587;28;20021;-68
2022/01/03 09:22:31;;;;;;;7.00;1.52;;;9.70;99.90;;;;;;5018337;28;20018;-68
2022/01/03 09:30:11;;;;;;;3.75;1.27;;;9.90;99.90;;;;;;5018795;28;20482;-68
2022/01/03 09:32:37;;;;;;;2.08;0.90;;;9.90;99.90;;;;;;5017058;28;20553;-68
2022/01/03 09:35:05;;;;;;;7.57;1.63;;;10.00;99.90;;;;;;5036337;28;20465;-68
2022/01/03 09:37:33;;;;;;;5.50;1.02;;;10.00;99.90;;;;;;5038301;28;20028;-68
2022/01/03 09:39:58;;;;;;;0.82;0.75;;;9.90;99.90;;;;;;5037777;28;20064;-68
2022/01/03 09:42:28;;;;;;;1.60;0.90;;;9.90;99.90;;;;;;5040595;28;20056;-68
2022/01/03 09:44:54;;;;;;;0.60;0.60;;;10.00;99.90;;;;;;5036454;28;20056;-68
2022/01/03 09:47:21;;;;;;;1.58;0.77;;;10.10;99.90;;;;;;5038467;28;20033;-68
2022/01/03 09:49:48;;;;;;;4.55;1.17;;;10.20;99.90;;;;;;5038916;28;20029;-68
2022/01/03 09:52:16;;;;;;;3.20;1.02;;;10.20;99.90;;;;;;5022393;28;20026;-68
2022/01/03 09:54:42;;;;;;;2.50;1.48;;;10.20;99.90;;;;;;5041141;28;20028;-68
2022/01/03 09:57:08;;;;;;;6.10;1.23;;;10.20;99.90;;;;;;5036143;28;20489;-68
2022/01/03 09:59:36;;;;;;;3.97;1.08;;;10.30;99.90;;;;;;5037049;28;20107;-68
2022/01/03 10:02:04;;;;;;;1.92;1.00;;;10.40;99.90;;;;;;5036106;28;20160;-68
2022/01/03 10:04:30;;;;;;;3.70;1.13;;;10.50;99.90;;;;;;5038786;28;20056;-68
2022/01/03 10:06:56;;;;;;;6.43;1.55;;;10.50;99.90;;;;;;5034554;28;20589;-68
2022/01/03 10:09:23;;;;;;;1.73;0.88;;;10.50;99.90;;;;;;5028232;28;20057;-69
2022/01/03 10:11:49;;;;;;;2.08;1.05;;;10.50;99.90;;;;;;5026681;28;20113;-68
2022/01/03 10:14:16;;;;;;;4.25;0.93;;;10.50;99.90;;;;;;5034161;28;20159;-68
2022/01/03 10:16:43;;;;;;;2.13;1.13;;;10.50;99.90;;;;;;5041048;28;20021;-68
2022/01/03 10:19:09;;;;;;;5.30;1.58;;;10.50;99.90;;;;;;5039401;28;20536;-68
2022/01/03 10:21:42;;;;;;;1.88;1.02;;;10.50;99.90;;;;;;5040755;28;20040;-68
2022/01/03 10:24:09;;;;;;;3.25;1.60;;;10.50;99.90;;;;;;5036280;28;20100;-68
2022/01/03 10:26:37;;;;;;;3.50;2.03;;;10.50;99.90;;;;;;5033473;28;20025;-68
2022/01/03 10:29:17;;;;;;;2.92;1.33;;;10.50;99.90;;;;;;5025765;28;20092;-68
2022/01/03 10:31:45;;;;;;;4.30;1.13;;;10.90;99.90;;;;;;5027610;28;20057;-68
2022/01/03 10:34:15;;;;;;;4.47;1.38;;;10.90;99.90;;;;;;5037598;28;20045;-68
2022/01/03 10:36:42;;;;;;;2.38;0.88;;;11.20;99.90;;;;;;5034721;28;20026;-68
2022/01/03 10:39:17;;;;;;;4.90;0.80;;;11.20;99.90;;;;;;5032658;28;20025;-69
2022/01/03 10:41:49;;;;;;;5.50;0.90;;;11.00;99.90;;;;;;5034727;28;20502;-68
2022/01/03 10:44:32;;;;;;;4.15;1.25;;;10.90;99.90;;;;;;5039601;28;20026;-68
2022/01/03 10:46:58;;;;;;;2.70;1.08;;;10.90;99.90;;;;;;5025004;28;20021;-68
2022/01/03 10:49:25;;;;;;;4.75;1.50;;;10.80;99.90;;;;;;5040167;28;20029;-68
2022/01/03 10:51:51;;;;;;;7.80;1.67;;;10.90;99.90;;;;;;5035540;28;20102;-68
2022/01/03 10:54:18;;;;;;;2.95;1.20;;;10.80;99.90;;;;;;5037091;28;20495;-68
2022/01/03 10:56:50;;;;;;;3.80;0.95;;;11.10;99.90;;;;;;5024916;28;20033;-68
2022/01/03 10:59:16;;;;;;;7.70;1.13;;;11.30;99.90;;;;;;5021083;28;20026;-68
2022/01/03 11:01:44;;;;;;;2.83;1.33;;;11.60;99.90;;;;;;5018734;28;20029;-68
2022/01/03 11:04:14;;;;;;;11.85;0.93;;;11.50;99.90;;;;;;5030612;28;20052;-69
2022/01/03 11:11:58;;;;;;;4.65;1.02;;;12.50;99.90;;;;;;5024285;28;20114;-68
2022/01/03 11:14:39;;;;;;;2.78;0.90;;;11.80;99.90;;;;;;5027965;28;20113;-68
2022/01/03 11:17:25;;;;;;;4.60;1.10;;;11.70;99.90;;;;;;5020594;28;20029;-68
2022/01/03 11:19:51;;;;;;;5.28;1.05;;;11.50;99.90;;;;;;5023884;28;20035;-68
2022/01/03 11:22:47;;;;;;;4.85;2.03;;;11.40;99.90;;;;;;5026844;28;20025;-68
2022/01/03 11:25:13;;;;;;;3.80;1.63;;;11.30;99.90;;;;;;5022992;28;20567;-68
2022/01/03 11:27:40;;;;;;;2.67;0.95;;;11.30;99.90;;;;;;5028513;28;20029;-68
2022/01/03 11:30:12;;;;;;;4.85;1.10;;;11.30;99.90;;;;;;5026756;28;20147;-68
2022/01/03 11:32:43;;;;;;;0.90;0.75;;;11.10;99.90;;;;;;5022405;28;20087;-68
2022/01/03 11:35:11;;;;;;;2.65;1.00;;;11.10;99.90;;;;;;5028436;28;20025;-68
2022/01/03 11:37:40;;;;;;;17.90;1.23;;;11.10;99.90;;;;;;5022318;28;20594;-68
2022/01/03 11:40:09;;;;;;;1.63;0.73;;;11.10;99.90;;;;;;5023653;28;20018;-68
2022/01/03 11:42:35;;;;;;;1.75;0.88;;;11.10;99.90;;;;;;5018070;28;20053;-68
2022/01/03 11:45:02;;;;;;;1.58;0.80;;;11.10;99.90;;;;;;5022839;28;20025;-68
2022/01/03 11:47:28;;;;;;;1.58;0.98;;;11.10;99.90;;;;;;5016955;28;20049;-68
2022/01/03 11:49:53;;;;;;;2.30;0.98;;;11.20;99.90;;;;;;5021373;28;20061;-69
2022/01/03 11:52:20;;;;;;;4.10;1.83;;;11.10;99.90;;;;;;5023332;28;20102;-68
2022/01/03 11:54:47;;;;;;;1.08;0.80;;;11.10;99.90;;;;;;5022565;28;20053;-68
2022/01/03 11:57:43;;;;;;;2.67;1.15;;;11.10;99.90;;;;;;5021898;28;20076;-68
2022/01/03 12:05:52;;;;;;;0.88;0.70;;;11.10;99.90;;;;;;5026826;28;20028;-68
2022/01/03 12:08:29;;;;;;;5.35;1.17;;;11.00;99.90;;;;;;5029017;28;20385;-68
2022/01/03 12:10:59;;;;;;;2.40;0.85;;;11.00;99.90;;;;;;5024901;28;20026;-69
2022/01/03 12:13:47;;;;;;;1.52;0.68;;;11.00;99.90;;;;;;5033244;28;20055;-70
2022/01/03 12:16:13;;;;;;;3.58;1.30;;;11.10;99.90;;;;;;5037601;28;20017;-68
2022/01/03 12:18:39;;;;;;;4.80;1.42;;;11.10;99.90;;;;;;5041541;28;20027;-68
2022/01/03 12:21:05;;;;;;;2.55;1.10;;;11.10;99.90;;;;;;5040450;28;20030;-68
2022/01/03 12:23:42;;;;;;;4.57;1.20;;;11.10;99.90;;;;;;5039237;28;20018;-69
2022/01/03 12:26:11;;;;;;;1.27;0.77;;;11.10;99.90;;;;;;5038522;28;20025;-68
2022/01/03 12:29:09;;;;;;;2.28;1.00;;;11.30;99.90;;;;;;5038997;28;20021;-69
2022/01/03 12:32:25;;;;;;;2.63;0.80;;;11.40;99.90;;;;;;5033860;28;20045;-68
2022/01/03 12:35:06;;;;;;;0.60;0.60;;;11.30;99.90;;;;;;5019558;28;20041;-68
2022/01/03 12:37:32;;;;;;;10.15;1.23;;;11.10;99.90;;;;;;5036636;28;20096;-68
2022/01/03 12:40:04;;;;;;;3.65;1.60;;;11.10;99.90;;;;;;5036700;28;20025;-68
2022/01/03 12:45:29;;;;;;;6.88;1.30;;;11.20;99.90;;;;;;5035046;28;20026;-68
2022/01/03 12:48:18;;;;;;;4.25;1.10;;;11.10;99.90;;;;;;5031516;28;20104;-68
2022/01/03 12:50:51;;;;;;;9.23;1.00;;;11.10;99.90;;;;;;5038317;28;20026;-69
2022/01/03 12:53:39;;;;;;;6.28;1.52;;;11.20;99.90;;;;;;5037925;28;20029;-69
2022/01/03 12:56:17;;;;;;;1.50;0.73;;;11.20;99.90;;;;;;5036773;28;20028;-69
2022/01/03 12:58:52;;;;;;;0.60;0.60;;;11.10;99.90;;;;;;5041083;28;20121;-69
2022/01/03 13:01:18;;;;;;;4.88;1.13;;;11.10;99.90;;;;;;5044716;28;20024;-69
2022/01/03 13:03:50;;;;;;;2.17;0.93;;;11.00;99.90;;;;;;5035191;28;20033;-69
2022/01/03 13:06:25;;;;;;;10.18;1.45;;;11.00;99.90;;;;;;5038265;28;20027;-69
2022/01/03 13:08:56;;;;;;;2.63;1.05;;;10.90;99.90;;;;;;5034645;28;20378;-69
2022/01/03 13:11:26;;;;;;;1.33;0.95;;;10.80;99.90;;;;;;5040413;28;20029;-68
2022/01/03 13:14:21;;;;;;;0.93;0.70;;;10.80;99.90;;;;;;5033595;28;20089;-68
2022/01/03 13:16:55;;;;;;;3.17;1.40;;;10.80;99.90;;;;;;5033794;28;20275;-68
2022/01/03 13:19:26;;;;;;;3.55;1.02;;;10.50;99.90;;;;;;5037926;28;20536;-67
2022/01/03 13:22:03;;;;;;;5.70;1.33;;;10.10;99.90;;;;;;5033651;28;20028;-67
2022/01/03 13:24:31;;;;;;;3.35;1.27;;;9.80;99.90;;;;;;5038765;28;20507;-67
2022/01/03 13:27:17;;;;;;;3.28;1.90;;;9.60;99.90;;;;;;5040886;28;20029;-67